sensor_id;sensor_type;location;lat;lon;timestamp;temperature;humidity
18658;DHT22;9458;50.942;5.074;2022-11-20T00:00:28;6.30;99.90
18658;DHT22;9458;50.942;5.074;2022-11-20T00:02:55;6.30;99.90
18658;DHT22;9458;50.942;5.074;2022-11-20T00:05:25;6.40;99.90
18658;DHT22;9458;50.942;5.074;2022-11-20T00:07:53;6.40;99.90
18658;DHT22;9458;50.942;5.074;2022-11-20T00:10:20;6.40;99.90
18658;DHT22;9458;50.942;5.074;2022-11-20T00:12:49;6.40;99.90
18658;DHT22;9458;50.942;5.074;2022-11-20T00:15:17;6.50;99.90
18658;DHT22;9458;50.942;5.074;2022-11-20T00:17:45;6.40;99.90
18658;DHT22;9458;50.942;5.074;2022-11-20T00:20:12;6.40;99.90
18658;DHT22;9458;50.942;5.074;2022-11-20T00:22:39;6.40;99.90
18658;DHT22;9458;50.942;5.074;2022-11-20T00:25:07;6.50;99.90
18658;DHT22;9458;50.942;5.074;2022-11-20T00:27:36;6.50;99.90
18658;DHT22;9458;50.942;5.074;2022-11-20T00:30:07;6.50;99.90
18658;DHT22;9458;50.942;5.074;2022-11-20T00:32:35;6.50;99.90
18658;DHT22;9458;50.942;5.074;2022-11-20T00:35:02;6.50;99.90
18658;DHT22;9458;50.942;5.074;2022-11-20T00:37:34;6.50;99.90
18658;DHT22;9458;50.942;5.074;2022-11-20T00:40:02;6.60;99.90
18658;DHT22;9458;50.942;5.074;2022-11-20T00:42:31;6.50;99.90
18658;DHT22;9458;50.942;5.074;2022-11-20T00:45:00;6.50;99.90
18658;DHT22;9458;50.942;5.074;2022-11-20T00:47:30;6.60;99.90
18658;DHT22;9458;50.942;5.074;2022-11-20T00:49:59;6.60;99.90
18658;DHT22;9458;50.942;5.074;2022-11-20T00:52:28;6.60;99.90
18658;DHT22;9458;50.942;5.074;2022-11-20T00:54:56;6.60;99.90
18658;DHT22;9458;50.942;5.074;2022-11-20T00:57:23;6.60;99.90
18658;DHT22;9458;50.942;5.074;2022-11-20T00:59:51;6.60;99.90
18658;DHT22;9458;50.942;5.074;2022-11-20T01:02:19;6.60;99.90
18658;DHT22;9458;50.942;5.074;2022-11-20T01:04:51;6.60;99.90
18658;DHT22;9458;50.942;5.074;2022-11-20T01:07:22;6.60;99.90
18658;DHT22;9458;50.942;5.074;2022-11-20T01:09:50;6.60;99.90
18658;DHT22;9458;50.942;5.074;2022-11-20T01:12:18;6.60;99.90
18658;DHT22;9458;50.942;5.074;2022-11-20T01:14:48;6.60;99.90
18658;DHT22;9458;50.942;5.074;2022-11-20T01:17:18;6.60;99.90
18658;DHT22;9458;50.942;5.074;2022-11-20T01:19:48;6.60;99.90
18658;DHT22;9458;50.942;5.074;2022-11-20T01:22:21;6.60;99.90
18658;DHT22;9458;50.942;5.074;2022-11-20T01:24:50;6.70;99.90
18658;DHT22;9458;50.942;5.074;2022-11-20T01:27:20;6.70;99.90
18658;DHT22;9458;50.942;5.074;2022-11-20T01:29:49;6.60;99.90
18658;DHT22;9458;50.942;5.074;2022-11-20T01:32:18;6.60;99.90
18658;DHT22;9458;50.942;5.074;2022-11-20T01:34:46;6.60;99.90
18658;DHT22;9458;50.942;5.074;2022-11-20T01:37:14;6.60;99.90
18658;DHT22;9458;50.942;5.074;2022-11-20T01:39:43;6.60;99.90
18658;DHT22;9458;50.942;5.074;2022-11-20T01:42:11;6.60;99.90
18658;DHT22;9458;50.942;5.074;2022-11-20T01:44:57;6.60;99.90
18658;DHT22;9458;50.942;5.074;2022-11-20T01:47:35;6.60;99.90
18658;DHT22;9458;50.942;5.074;2022-11-20T01:50:10;6.50;99.90
18658;DHT22;9458;50.942;5.074;2022-11-20T01:52:44;6.60;99.90
18658;DHT22;9458;50.942;5.074;2022-11-20T01:55:18;6.60;99.90
18658;DHT22;9458;50.942;5.074;2022-11-20T01:57:48;6.60;99.90
18658;DHT22;9458;50.942;5.074;2022-11-20T02:00:18;6.60;99.90
18658;DHT22;9458;50.942;5.074;2022-11-20T02:02:50;6.60;99.90
18658;DHT22;9458;50.942;5.074;2022-11-20T02:05:23;6.60;99.90
18658;DHT22;9458;50.942;5.074;2022-11-20T02:07:52;6.70;99.90
18658;DHT22;9458;50.942;5.074;2022-11-20T02:10:27;6.60;99.90
18658;DHT22;9458;50.942;5.074;2022-11-20T02:12:55;6.60;99.90
18658;DHT22;9458;50.942;5.074;2022-11-20T02:15:42;6.60;99.90
18658;DHT22;9458;50.942;5.074;2022-11-20T02:18:10;6.60;99.90
18658;DHT22;9458;50.942;5.074;2022-11-20T02:20:37;6.60;99.90
18658;DHT22;9458;50.942;5.074;2022-11-20T02:23:10;6.60;99.90
18658;DHT22;9458;50.942;5.074;2022-11-20T02:25:41;6.70;99.90
18658;DHT22;9458;50.942;5.074;2022-11-20T02:28:10;6.70;99.90
18658;DHT22;9458;50.942;5.074;2022-11-20T02:30:39;6.60;99.90
18658;DHT22;9458;50.942;5.074;2022-11-20T02:33:06;6.70;99.90
18658;DHT22;9458;50.942;5.074;2022-11-20T02:35:42;6.70;99.90
18658;DHT22;9458;50.942;5.074;2022-11-20T02:38:10;6.70;99.90
18658;DHT22;9458;50.942;5.074;2022-11-20T02:40:37;6.70;99.90
18658;DHT22;9458;50.942;5.074;2022-11-20T02:43:07;6.70;99.90
18658;DHT22;9458;50.942;5.074;2022-11-20T02:45:35;6.70;99.90
18658;DHT22;9458;50.942;5.074;2022-11-20T02:48:03;6.70;99.90
18658;DHT22;9458;50.942;5.074;2022-11-20T02:50:30;6.70;99.90
18658;DHT22;9458;50.942;5.074;2022-11-20T02:52:58;6.70;99.90
18658;DHT22;9458;50.942;5.074;2022-11-20T02:55:26;6.70;99.90
18658;DHT22;9458;50.942;5.074;2022-11-20T02:57:54;6.70;99.90
18658;DHT22;9458;50.942;5.074;2022-11-20T03:00:23;6.70;99.90
18658;DHT22;9458;50.942;5.074;2022-11-20T03:02:51;6.70;99.90
18658;DHT22;9458;50.942;5.074;2022-11-20T03:05:19;6.70;99.90
18658;DHT22;9458;50.942;5.074;2022-11-20T03:07:46;6.70;99.90
18658;DHT22;9458;50.942;5.074;2022-11-20T03:10:14;6.70;99.90
18658;DHT22;9458;50.942;5.074;2022-11-20T03:12:41;6.70;99.90
18658;DHT22;9458;50.942;5.074;2022-11-20T03:15:09;6.70;99.90
18658;DHT22;9458;50.942;5.074;2022-11-20T03:17:40;6.70;99.90
18658;DHT22;9458;50.942;5.074;2022-11-20T03:20:09;6.70;99.90
18658;DHT22;9458;50.942;5.074;2022-11-20T03:22:36;6.70;99.90
18658;DHT22;9458;50.942;5.074;2022-11-20T03:25:04;6.70;99.90
18658;DHT22;9458;50.942;5.074;2022-11-20T03:27:33;6.70;99.90
18658;DHT22;9458;50.942;5.074;2022-11-20T03:30:01;6.70;99.90
18658;DHT22;9458;50.942;5.074;2022-11-20T03:32:28;6.70;99.90
18658;DHT22;9458;50.942;5.074;2022-11-20T03:34:57;6.70;99.90
18658;DHT22;9458;50.942;5.074;2022-11-20T03:37:25;6.70;99.90
18658;DHT22;9458;50.942;5.074;2022-11-20T03:39:52;6.70;99.90
18658;DHT22;9458;50.942;5.074;2022-11-20T03:42:20;6.70;99.90
18658;DHT22;9458;50.942;5.074;2022-11-20T03:45:05;6.70;99.90
18658;DHT22;9458;50.942;5.074;2022-11-20T03:47:33;6.70;99.90
18658;DHT22;9458;50.942;5.074;2022-11-20T03:50:03;6.70;99.90
18658;DHT22;9458;50.942;5.074;2022-11-20T03:52:30;6.70;99.90
18658;DHT22;9458;50.942;5.074;2022-11-20T03:54:57;6.70;99.90
18658;DHT22;9458;50.942;5.074;2022-11-20T03:57:25;6.70;99.90
18658;DHT22;9458;50.942;5.074;2022-11-20T03:59:53;6.70;99.90
18658;DHT22;9458;50.942;5.074;2022-11-20T04:02:21;6.70;99.90
18658;DHT22;9458;50.942;5.074;2022-11-20T04:04:50;6.70;99.90
18658;DHT22;9458;50.942;5.074;2022-11-20T04:07:20;6.70;99.90
18658;DHT22;9458;50.942;5.074;2022-11-20T04:09:59;6.70;99.90
18658;DHT22;9458;50.942;5.074;2022-11-20T04:12:33;6.70;99.90
18658;DHT22;9458;50.942;5.074;2022-11-20T04:15:01;6.70;99.90
18658;DHT22;9458;50.942;5.074;2022-11-20T04:17:30;6.70;99.90
18658;DHT22;9458;50.942;5.074;2022-11-20T04:20:02;6.70;99.90
18658;DHT22;9458;50.942;5.074;2022-11-20T04:22:32;6.70;99.90
18658;DHT22;9458;50.942;5.074;2022-11-20T04:25:01;6.70;99.90
18658;DHT22;9458;50.942;5.074;2022-11-20T04:27:30;6.70;99.90
18658;DHT22;9458;50.942;5.074;2022-11-20T04:29:58;6.70;99.90
18658;DHT22;9458;50.942;5.074;2022-11-20T04:32:25;6.70;99.90
18658;DHT22;9458;50.942;5.074;2022-11-20T04:34:53;6.70;99.90
18658;DHT22;9458;50.942;5.074;2022-11-20T04:37:22;6.70;99.90
18658;DHT22;9458;50.942;5.074;2022-11-20T04:39:51;6.70;99.90
18658;DHT22;9458;50.942;5.074;2022-11-20T04:42:19;6.70;99.90
18658;DHT22;9458;50.942;5.074;2022-11-20T04:44:56;6.70;99.90
18658;DHT22;9458;50.942;5.074;2022-11-20T04:47:24;6.70;99.90
18658;DHT22;9458;50.942;5.074;2022-11-20T04:49:52;6.70;99.90
18658;DHT22;9458;50.942;5.074;2022-11-20T04:52:20;6.70;99.90
18658;DHT22;9458;50.942;5.074;2022-11-20T04:54:50;6.70;99.90
18658;DHT22;9458;50.942;5.074;2022-11-20T04:57:19;6.80;99.90
18658;DHT22;9458;50.942;5.074;2022-11-20T04:59:47;6.70;99.90
18658;DHT22;9458;50.942;5.074;2022-11-20T05:02:14;6.70;99.90
18658;DHT22;9458;50.942;5.074;2022-11-20T05:04:42;6.70;99.90
18658;DHT22;9458;50.942;5.074;2022-11-20T05:07:09;6.70;99.90
18658;DHT22;9458;50.942;5.074;2022-11-20T05:09:37;6.70;99.90
18658;DHT22;9458;50.942;5.074;2022-11-20T05:12:07;6.80;99.90
18658;DHT22;9458;50.942;5.074;2022-11-20T05:14:35;6.70;99.90
18658;DHT22;9458;50.942;5.074;2022-11-20T05:17:03;6.80;99.90
18658;DHT22;9458;50.942;5.074;2022-11-20T05:19:31;6.70;99.90
18658;DHT22;9458;50.942;5.074;2022-11-20T05:21:58;6.70;99.90
18658;DHT22;9458;50.942;5.074;2022-11-20T05:24:26;6.70;99.90
18658;DHT22;9458;50.942;5.074;2022-11-20T05:26:54;6.70;99.90
18658;DHT22;9458;50.942;5.074;2022-11-20T05:29:24;6.70;99.90
18658;DHT22;9458;50.942;5.074;2022-11-20T05:31:52;6.70;99.90
18658;DHT22;9458;50.942;5.074;2022-11-20T05:34:20;6.70;99.90
18658;DHT22;9458;50.942;5.074;2022-11-20T05:36:48;6.70;99.90
18658;DHT22;9458;50.942;5.074;2022-11-20T05:39:16;6.70;99.90
18658;DHT22;9458;50.942;5.074;2022-11-20T05:41:43;6.70;99.90
18658;DHT22;9458;50.942;5.074;2022-11-20T05:44:11;6.70;99.90
18658;DHT22;9458;50.942;5.074;2022-11-20T05:46:41;6.70;99.90
18658;DHT22;9458;50.942;5.074;2022-11-20T05:49:08;6.70;99.90
18658;DHT22;9458;50.942;5.074;2022-11-20T05:51:35;6.70;99.90
18658;DHT22;9458;50.942;5.074;2022-11-20T05:54:03;6.60;99.90
18658;DHT22;9458;50.942;5.074;2022-11-20T05:56:30;6.70;99.90
18658;DHT22;9458;50.942;5.074;2022-11-20T05:58:59;6.70;99.90
18658;DHT22;9458;50.942;5.074;2022-11-20T06:01:27;6.80;99.90
18658;DHT22;9458;50.942;5.074;2022-11-20T06:03:56;6.70;99.90
18658;DHT22;9458;50.942;5.074;2022-11-20T06:06:25;6.80;99.90
18658;DHT22;9458;50.942;5.074;2022-11-20T06:08:52;6.80;99.90
18658;DHT22;9458;50.942;5.074;2022-11-20T06:11:19;6.80;99.90
18658;DHT22;9458;50.942;5.074;2022-11-20T06:13:48;6.80;99.90
18658;DHT22;9458;50.942;5.074;2022-11-20T06:16:18;6.80;99.90
18658;DHT22;9458;50.942;5.074;2022-11-20T06:18:47;6.80;99.90
18658;DHT22;9458;50.942;5.074;2022-11-20T06:21:18;6.80;99.90
18658;DHT22;9458;50.942;5.074;2022-11-20T06:23:48;6.80;99.90
18658;DHT22;9458;50.942;5.074;2022-11-20T06:26:18;6.70;99.90
18658;DHT22;9458;50.942;5.074;2022-11-20T06:28:45;6.70;99.90
18658;DHT22;9458;50.942;5.074;2022-11-20T06:31:15;6.70;99.90
18658;DHT22;9458;50.942;5.074;2022-11-20T06:33:43;6.70;99.90
18658;DHT22;9458;50.942;5.074;2022-11-20T06:36:12;6.70;99.90
18658;DHT22;9458;50.942;5.074;2022-11-20T06:38:42;6.80;99.90
18658;DHT22;9458;50.942;5.074;2022-11-20T06:41:12;6.70;99.90
18658;DHT22;9458;50.942;5.074;2022-11-20T06:43:40;6.70;99.90
18658;DHT22;9458;50.942;5.074;2022-11-20T06:46:09;6.80;99.90
18658;DHT22;9458;50.942;5.074;2022-11-20T06:48:37;6.70;99.90
18658;DHT22;9458;50.942;5.074;2022-11-20T06:51:05;6.70;99.90
18658;DHT22;9458;50.942;5.074;2022-11-20T06:53:34;6.70;99.90
18658;DHT22;9458;50.942;5.074;2022-11-20T06:56:05;6.70;99.90
18658;DHT22;9458;50.942;5.074;2022-11-20T06:58:34;6.60;99.90
18658;DHT22;9458;50.942;5.074;2022-11-20T07:01:03;6.60;99.90
18658;DHT22;9458;50.942;5.074;2022-11-20T07:03:31;6.60;99.90
18658;DHT22;9458;50.942;5.074;2022-11-20T07:06:00;6.50;99.90
18658;DHT22;9458;50.942;5.074;2022-11-20T07:08:28;6.60;99.90
18658;DHT22;9458;50.942;5.074;2022-11-20T07:10:57;6.50;99.90
18658;DHT22;9458;50.942;5.074;2022-11-20T07:13:27;6.50;99.90
18658;DHT22;9458;50.942;5.074;2022-11-20T07:15:59;6.40;99.90
18658;DHT22;9458;50.942;5.074;2022-11-20T07:18:26;6.40;99.90
18658;DHT22;9458;50.942;5.074;2022-11-20T07:20:54;6.50;99.90
18658;DHT22;9458;50.942;5.074;2022-11-20T07:23:21;6.50;99.90
18658;DHT22;9458;50.942;5.074;2022-11-20T07:25:49;6.50;99.90
18658;DHT22;9458;50.942;5.074;2022-11-20T07:28:17;6.50;99.90
18658;DHT22;9458;50.942;5.074;2022-11-20T07:30:51;6.60;99.90
18658;DHT22;9458;50.942;5.074;2022-11-20T07:33:19;6.60;99.90
18658;DHT22;9458;50.942;5.074;2022-11-20T07:35:47;6.60;99.90
18658;DHT22;9458;50.942;5.074;2022-11-20T07:38:15;6.60;99.90
18658;DHT22;9458;50.942;5.074;2022-11-20T07:40:42;6.60;99.90
18658;DHT22;9458;50.942;5.074;2022-11-20T07:43:10;6.60;99.90
18658;DHT22;9458;50.942;5.074;2022-11-20T07:45:37;6.70;99.90
18658;DHT22;9458;50.942;5.074;2022-11-20T07:48:06;6.70;99.90
18658;DHT22;9458;50.942;5.074;2022-11-20T07:50:34;6.80;99.90
18658;DHT22;9458;50.942;5.074;2022-11-20T07:53:02;6.80;99.90
18658;DHT22;9458;50.942;5.074;2022-11-20T07:55:30;6.80;99.90
18658;DHT22;9458;50.942;5.074;2022-11-20T07:57:59;6.80;99.90
18658;DHT22;9458;50.942;5.074;2022-11-20T08:00:26;6.90;99.90
18658;DHT22;9458;50.942;5.074;2022-11-20T08:02:55;6.90;99.90
18658;DHT22;9458;50.942;5.074;2022-11-20T08:05:24;6.90;99.90
18658;DHT22;9458;50.942;5.074;2022-11-20T08:07:51;6.90;99.90
18658;DHT22;9458;50.942;5.074;2022-11-20T08:10:18;6.90;99.90
18658;DHT22;9458;50.942;5.074;2022-11-20T08:12:47;6.90;99.90
18658;DHT22;9458;50.942;5.074;2022-11-20T08:15:33;6.90;99.90
18658;DHT22;9458;50.942;5.074;2022-11-20T08:18:03;6.90;99.90
18658;DHT22;9458;50.942;5.074;2022-11-20T08:20:32;6.90;99.90
18658;DHT22;9458;50.942;5.074;2022-11-20T08:23:02;6.90;99.90
18658;DHT22;9458;50.942;5.074;2022-11-20T08:25:32;7.00;99.90
18658;DHT22;9458;50.942;5.074;2022-11-20T08:28:02;7.00;99.90
18658;DHT22;9458;50.942;5.074;2022-11-20T08:30:31;7.00;99.90
18658;DHT22;9458;50.942;5.074;2022-11-20T08:33:01;7.10;99.90
18658;DHT22;9458;50.942;5.074;2022-11-20T08:35:34;7.10;99.90
18658;DHT22;9458;50.942;5.074;2022-11-20T08:38:01;7.10;99.90
18658;DHT22;9458;50.942;5.074;2022-11-20T08:40:30;7.10;99.90
18658;DHT22;9458;50.942;5.074;2022-11-20T08:42:58;7.20;99.90
18658;DHT22;9458;50.942;5.074;2022-11-20T08:45:25;7.20;99.90
18658;DHT22;9458;50.942;5.074;2022-11-20T08:47:53;7.30;99.90
18658;DHT22;9458;50.942;5.074;2022-11-20T08:50:20;7.30;99.90
18658;DHT22;9458;50.942;5.074;2022-11-20T08:52:50;7.40;99.90
18658;DHT22;9458;50.942;5.074;2022-11-20T08:55:19;7.40;99.90
18658;DHT22;9458;50.942;5.074;2022-11-20T08:57:47;7.40;99.90
18658;DHT22;9458;50.942;5.074;2022-11-20T09:00:17;7.40;99.90
18658;DHT22;9458;50.942;5.074;2022-11-20T09:02:45;7.40;99.90
18658;DHT22;9458;50.942;5.074;2022-11-20T09:05:14;7.50;99.90
18658;DHT22;9458;50.942;5.074;2022-11-20T09:07:42;7.40;99.90
18658;DHT22;9458;50.942;5.074;2022-11-20T09:10:12;7.50;99.90
18658;DHT22;9458;50.942;5.074;2022-11-20T09:12:40;7.50;99.90
18658;DHT22;9458;50.942;5.074;2022-11-20T09:15:09;7.50;99.90
18658;DHT22;9458;50.942;5.074;2022-11-20T09:17:37;7.60;99.90
18658;DHT22;9458;50.942;5.074;2022-11-20T09:20:05;7.60;99.90
18658;DHT22;9458;50.942;5.074;2022-11-20T09:22:34;7.60;99.90
18658;DHT22;9458;50.942;5.074;2022-11-20T09:25:07;7.60;99.90
18658;DHT22;9458;50.942;5.074;2022-11-20T09:27:36;7.60;99.90
18658;DHT22;9458;50.942;5.074;2022-11-20T09:30:05;7.70;99.90
18658;DHT22;9458;50.942;5.074;2022-11-20T09:32:34;7.70;99.90
18658;DHT22;9458;50.942;5.074;2022-11-20T09:35:02;7.70;99.90
18658;DHT22;9458;50.942;5.074;2022-11-20T09:37:30;7.70;99.90
18658;DHT22;9458;50.942;5.074;2022-11-20T09:39:59;7.80;99.90
18658;DHT22;9458;50.942;5.074;2022-11-20T09:42:36;7.80;99.90
18658;DHT22;9458;50.942;5.074;2022-11-20T09:45:23;7.80;99.90
18658;DHT22;9458;50.942;5.074;2022-11-20T09:48:13;7.80;99.90
18658;DHT22;9458;50.942;5.074;2022-11-20T09:50:47;7.80;99.90
18658;DHT22;9458;50.942;5.074;2022-11-20T09:53:24;7.80;99.90
18658;DHT22;9458;50.942;5.074;2022-11-20T09:55:55;7.80;99.90
18658;DHT22;9458;50.942;5.074;2022-11-20T09:58:35;7.80;99.90
18658;DHT22;9458;50.942;5.074;2022-11-20T10:01:11;7.80;99.90
18658;DHT22;9458;50.942;5.074;2022-11-20T10:03:50;7.80;99.90
18658;DHT22;9458;50.942;5.074;2022-11-20T10:06:23;7.90;99.90
18658;DHT22;9458;50.942;5.074;2022-11-20T10:09:01;7.90;99.90
18658;DHT22;9458;50.942;5.074;2022-11-20T10:11:39;7.90;99.90
18658;DHT22;9458;50.942;5.074;2022-11-20T10:14:18;7.90;99.90
18658;DHT22;9458;50.942;5.074;2022-11-20T10:16:57;8.00;99.90
18658;DHT22;9458;50.942;5.074;2022-11-20T10:19:45;8.00;99.90
18658;DHT22;9458;50.942;5.074;2022-11-20T10:22:30;8.00;99.90
18658;DHT22;9458;50.942;5.074;2022-11-20T10:25:10;8.10;99.90
18658;DHT22;9458;50.942;5.074;2022-11-20T10:27:56;8.10;99.90
18658;DHT22;9458;50.942;5.074;2022-11-20T10:30:34;8.10;99.90
18658;DHT22;9458;50.942;5.074;2022-11-20T10:33:11;8.10;99.90
18658;DHT22;9458;50.942;5.074;2022-11-20T10:35:44;8.20;99.90
18658;DHT22;9458;50.942;5.074;2022-11-20T10:38:18;8.20;99.90
18658;DHT22;9458;50.942;5.074;2022-11-20T10:40:52;8.20;99.90
18658;DHT22;9458;50.942;5.074;2022-11-20T10:43:40;8.20;99.90
18658;DHT22;9458;50.942;5.074;2022-11-20T10:46:15;8.20;99.90
18658;DHT22;9458;50.942;5.074;2022-11-20T10:48:45;8.30;99.90
18658;DHT22;9458;50.942;5.074;2022-11-20T10:51:21;8.30;99.90
18658;DHT22;9458;50.942;5.074;2022-11-20T10:53:56;8.30;99.90
18658;DHT22;9458;50.942;5.074;2022-11-20T10:56:33;8.40;99.90
18658;DHT22;9458;50.942;5.074;2022-11-20T10:59:14;8.40;99.90
18658;DHT22;9458;50.942;5.074;2022-11-20T11:01:46;8.50;99.90
18658;DHT22;9458;50.942;5.074;2022-11-20T11:04:26;8.50;99.90
18658;DHT22;9458;50.942;5.074;2022-11-20T11:07:02;8.50;99.90
18658;DHT22;9458;50.942;5.074;2022-11-20T11:09:37;8.50;99.90
18658;DHT22;9458;50.942;5.074;2022-11-20T11:12:07;8.60;99.90
18658;DHT22;9458;50.942;5.074;2022-11-20T11:14:47;8.60;99.90
18658;DHT22;9458;50.942;5.074;2022-11-20T11:17:26;8.60;99.90
18658;DHT22;9458;50.942;5.074;2022-11-20T11:20:02;8.60;99.90
18658;DHT22;9458;50.942;5.074;2022-11-20T11:22:33;8.70;99.90
18658;DHT22;9458;50.942;5.074;2022-11-20T11:25:02;8.70;99.90
18658;DHT22;9458;50.942;5.074;2022-11-20T11:27:30;8.70;99.90
18658;DHT22;9458;50.942;5.074;2022-11-20T11:30:12;8.70;99.90
18658;DHT22;9458;50.942;5.074;2022-11-20T11:32:43;8.80;99.90
18658;DHT22;9458;50.942;5.074;2022-11-20T11:35:24;8.80;99.90
18658;DHT22;9458;50.942;5.074;2022-11-20T11:38:01;8.90;99.90
18658;DHT22;9458;50.942;5.074;2022-11-20T11:40:32;9.00;99.90
18658;DHT22;9458;50.942;5.074;2022-11-20T11:43:02;9.00;99.90
18658;DHT22;9458;50.942;5.074;2022-11-20T11:45:31;9.00;99.90
18658;DHT22;9458;50.942;5.074;2022-11-20T11:48:01;9.00;99.90
18658;DHT22;9458;50.942;5.074;2022-11-20T11:50:31;9.00;99.90
18658;DHT22;9458;50.942;5.074;2022-11-20T11:53:08;9.00;99.90
18658;DHT22;9458;50.942;5.074;2022-11-20T11:55:40;9.00;99.90
18658;DHT22;9458;50.942;5.074;2022-11-20T11:58:31;9.10;99.90
18658;DHT22;9458;50.942;5.074;2022-11-20T12:01:04;9.20;99.90
18658;DHT22;9458;50.942;5.074;2022-11-20T12:03:38;9.20;99.90
18658;DHT22;9458;50.942;5.074;2022-11-20T12:06:11;9.30;99.90
18658;DHT22;9458;50.942;5.074;2022-11-20T12:08:46;9.30;99.90
18658;DHT22;9458;50.942;5.074;2022-11-20T12:11:21;9.40;99.90
18658;DHT22;9458;50.942;5.074;2022-11-20T12:13:55;9.50;99.90
18658;DHT22;9458;50.942;5.074;2022-11-20T12:16:27;9.50;99.90
18658;DHT22;9458;50.942;5.074;2022-11-20T12:18:57;9.50;99.90
18658;DHT22;9458;50.942;5.074;2022-11-20T12:21:31;9.50;99.90
18658;DHT22;9458;50.942;5.074;2022-11-20T12:24:17;9.50;99.90
18658;DHT22;9458;50.942;5.074;2022-11-20T12:27:02;9.50;99.90
18658;DHT22;9458;50.942;5.074;2022-11-20T12:29:40;9.50;99.90
18658;DHT22;9458;50.942;5.074;2022-11-20T12:32:36;9.60;99.90
18658;DHT22;9458;50.942;5.074;2022-11-20T12:35:24;9.60;99.90
18658;DHT22;9458;50.942;5.074;2022-11-20T12:38:07;9.60;99.90
18658;DHT22;9458;50.942;5.074;2022-11-20T12:40:44;9.60;99.90
18658;DHT22;9458;50.942;5.074;2022-11-20T12:43:20;9.60;99.90
18658;DHT22;9458;50.942;5.074;2022-11-20T12:46:14;9.70;99.90
18658;DHT22;9458;50.942;5.074;2022-11-20T12:52:02;9.70;99.90
18658;DHT22;9458;50.942;5.074;2022-11-20T12:57:39;9.70;99.90
18658;DHT22;9458;50.942;5.074;2022-11-20T13:00:14;9.70;99.90
18658;DHT22;9458;50.942;5.074;2022-11-20T13:03:03;9.60;99.90
18658;DHT22;9458;50.942;5.074;2022-11-20T13:05:40;9.60;99.90
18658;DHT22;9458;50.942;5.074;2022-11-20T13:08:32;9.60;99.90
18658;DHT22;9458;50.942;5.074;2022-11-20T13:11:08;9.60;99.90
18658;DHT22;9458;50.942;5.074;2022-11-20T13:13:44;9.50;99.90
18658;DHT22;9458;50.942;5.074;2022-11-20T13:16:19;9.50;99.90
18658;DHT22;9458;50.942;5.074;2022-11-20T13:18:51;9.40;99.90
18658;DHT22;9458;50.942;5.074;2022-11-20T13:21:22;9.40;99.90
18658;DHT22;9458;50.942;5.074;2022-11-20T13:24:04;9.40;99.90
18658;DHT22;9458;50.942;5.074;2022-11-20T13:26:33;9.40;99.90
18658;DHT22;9458;50.942;5.074;2022-11-20T13:29:08;9.40;99.90
18658;DHT22;9458;50.942;5.074;2022-11-20T13:31:39;9.40;99.90
18658;DHT22;9458;50.942;5.074;2022-11-20T13:34:12;9.40;99.90
18658;DHT22;9458;50.942;5.074;2022-11-20T13:36:50;9.40;99.90
18658;DHT22;9458;50.942;5.074;2022-11-20T13:39:26;9.30;99.90
18658;DHT22;9458;50.942;5.074;2022-11-20T13:41:55;9.40;99.90
18658;DHT22;9458;50.942;5.074;2022-11-20T13:44:29;9.40;99.90
18658;DHT22;9458;50.942;5.074;2022-11-20T13:46:58;9.40;99.90
18658;DHT22;9458;50.942;5.074;2022-11-20T13:49:29;9.30;99.90
18658;DHT22;9458;50.942;5.074;2022-11-20T13:52:19;9.30;99.90
18658;DHT22;9458;50.942;5.074;2022-11-20T13:55:06;9.40;99.90
18658;DHT22;9458;50.942;5.074;2022-11-20T13:58:02;9.40;99.90
18658;DHT22;9458;50.942;5.074;2022-11-20T14:00:33;9.40;99.90
18658;DHT22;9458;50.942;5.074;2022-11-20T14:03:17;9.30;99.90
18658;DHT22;9458;50.942;5.074;2022-11-20T14:05:50;9.40;99.90
18658;DHT22;9458;50.942;5.074;2022-11-20T14:08:27;9.40;99.90
18658;DHT22;9458;50.942;5.074;2022-11-20T14:11:18;9.40;99.90
18658;DHT22;9458;50.942;5.074;2022-11-20T14:13:55;9.40;99.90
18658;DHT22;9458;50.942;5.074;2022-11-20T14:16:24;9.40;99.90
18658;DHT22;9458;50.942;5.074;2022-11-20T14:18:53;9.30;99.90
18658;DHT22;9458;50.942;5.074;2022-11-20T14:21:23;9.30;99.90
18658;DHT22;9458;50.942;5.074;2022-11-20T14:23:53;9.30;99.90
18658;DHT22;9458;50.942;5.074;2022-11-20T14:26:23;9.20;99.90
18658;DHT22;9458;50.942;5.074;2022-11-20T14:28:51;9.20;99.90
18658;DHT22;9458;50.942;5.074;2022-11-20T14:31:23;9.20;99.90
18658;DHT22;9458;50.942;5.074;2022-11-20T14:33:52;9.20;99.90
18658;DHT22;9458;50.942;5.074;2022-11-20T14:36:22;9.30;99.90
18658;DHT22;9458;50.942;5.074;2022-11-20T14:38:51;9.30;99.90
18658;DHT22;9458;50.942;5.074;2022-11-20T14:41:21;9.30;99.90
18658;DHT22;9458;50.942;5.074;2022-11-20T14:43:54;9.20;99.90
18658;DHT22;9458;50.942;5.074;2022-11-20T14:46:24;9.30;99.90
18658;DHT22;9458;50.942;5.074;2022-11-20T14:48:55;9.20;99.90
18658;DHT22;9458;50.942;5.074;2022-11-20T14:51:27;9.20;99.90
18658;DHT22;9458;50.942;5.074;2022-11-20T14:53:55;9.20;99.90
18658;DHT22;9458;50.942;5.074;2022-11-20T14:56:24;9.30;99.90
18658;DHT22;9458;50.942;5.074;2022-11-20T14:58:59;9.20;99.90
18658;DHT22;9458;50.942;5.074;2022-11-20T15:01:28;9.20;99.90
18658;DHT22;9458;50.942;5.074;2022-11-20T15:04:05;9.20;99.90
18658;DHT22;9458;50.942;5.074;2022-11-20T15:06:34;9.30;99.90
18658;DHT22;9458;50.942;5.074;2022-11-20T15:09:03;9.20;99.90
18658;DHT22;9458;50.942;5.074;2022-11-20T15:11:33;9.30;99.90
18658;DHT22;9458;50.942;5.074;2022-11-20T15:14:09;9.20;99.90
18658;DHT22;9458;50.942;5.074;2022-11-20T15:16:39;9.30;99.90
18658;DHT22;9458;50.942;5.074;2022-11-20T15:19:16;9.20;99.90
18658;DHT22;9458;50.942;5.074;2022-11-20T15:21:45;9.20;99.90
18658;DHT22;9458;50.942;5.074;2022-11-20T15:24:13;9.20;99.90
18658;DHT22;9458;50.942;5.074;2022-11-20T15:26:40;9.20;99.90
18658;DHT22;9458;50.942;5.074;2022-11-20T15:29:12;9.20;99.90
18658;DHT22;9458;50.942;5.074;2022-11-20T15:31:45;9.30;99.90
18658;DHT22;9458;50.942;5.074;2022-11-20T15:34:13;9.20;99.90
18658;DHT22;9458;50.942;5.074;2022-11-20T15:36:42;9.20;99.90
18658;DHT22;9458;50.942;5.074;2022-11-20T15:39:10;9.20;99.90
18658;DHT22;9458;50.942;5.074;2022-11-20T15:41:38;9.20;99.90
18658;DHT22;9458;50.942;5.074;2022-11-20T15:44:06;9.20;99.90
18658;DHT22;9458;50.942;5.074;2022-11-20T15:46:38;9.20;99.90
18658;DHT22;9458;50.942;5.074;2022-11-20T15:49:10;9.20;99.90
18658;DHT22;9458;50.942;5.074;2022-11-20T15:51:41;9.20;99.90
18658;DHT22;9458;50.942;5.074;2022-11-20T15:54:11;9.20;99.90
18658;DHT22;9458;50.942;5.074;2022-11-20T15:56:39;9.20;99.90
18658;DHT22;9458;50.942;5.074;2022-11-20T15:59:07;9.20;99.90
18658;DHT22;9458;50.942;5.074;2022-11-20T16:01:37;9.20;99.90
18658;DHT22;9458;50.942;5.074;2022-11-20T16:04:07;9.30;99.90
18658;DHT22;9458;50.942;5.074;2022-11-20T16:06:35;9.20;99.90
18658;DHT22;9458;50.942;5.074;2022-11-20T16:09:03;9.20;99.90
18658;DHT22;9458;50.942;5.074;2022-11-20T16:11:31;9.20;99.90
18658;DHT22;9458;50.942;5.074;2022-11-20T16:13:59;9.20;99.90
18658;DHT22;9458;50.942;5.074;2022-11-20T16:16:45;9.30;99.90
18658;DHT22;9458;50.942;5.074;2022-11-20T16:19:13;9.20;99.90
18658;DHT22;9458;50.942;5.074;2022-11-20T16:21:42;9.20;99.90
18658;DHT22;9458;50.942;5.074;2022-11-20T16:24:11;9.30;99.90
18658;DHT22;9458;50.942;5.074;2022-11-20T16:26:40;9.30;99.90
18658;DHT22;9458;50.942;5.074;2022-11-20T16:29:08;9.30;99.90
18658;DHT22;9458;50.942;5.074;2022-11-20T16:31:35;9.30;99.90
18658;DHT22;9458;50.942;5.074;2022-11-20T16:34:07;9.30;99.90